sensor_id;sensor_type;location;lat;lon;timestamp;P1;durP1;ratioP1;P2;durP2;ratioP2
20619;SDS011;10469;42.720;23.252;2022-12-26T00:01:54;37.67;;;19.98;;
20619;SDS011;10469;42.720;23.252;2022-12-26T00:04:20;34.33;;;17.05;;
20619;SDS011;10469;42.720;23.252;2022-12-26T00:06:46;33.20;;;17.98;;
20619;SDS011;10469;42.720;23.252;2022-12-26T00:09:12;36.28;;;17.52;;
20619;SDS011;10469;42.720;23.252;2022-12-26T00:11:37;32.08;;;18.20;;
20619;SDS011;10469;42.720;23.252;2022-12-26T00:14:04;34.90;;;17.33;;
20619;SDS011;10469;42.720;23.252;2022-12-26T00:16:32;38.88;;;17.88;;
20619;SDS011;10469;42.720;23.252;2022-12-26T00:18:57;37.20;;;17.98;;
20619;SDS011;10469;42.720;23.252;2022-12-26T00:21:23;36.22;;;18.05;;
20619;SDS011;10469;42.720;23.252;2022-12-26T00:23:51;32.58;;;18.15;;
20619;SDS011;10469;42.720;23.252;2022-12-26T00:26:18;46.03;;;24.13;;
20619;SDS011;10469;42.720;23.252;2022-12-26T00:28:45;41.30;;;21.23;;
20619;SDS011;10469;42.720;23.252;2022-12-26T00:31:15;33.17;;;19.20;;
20619;SDS011;10469;42.720;23.252;2022-12-26T00:33:43;36.60;;;19.90;;
20619;SDS011;10469;42.720;23.252;2022-12-26T00:36:12;34.83;;;19.25;;
20619;SDS011;10469;42.720;23.252;2022-12-26T00:38:43;37.50;;;19.95;;
20619;SDS011;10469;42.720;23.252;2022-12-26T00:41:10;37.22;;;20.33;;
20619;SDS011;10469;42.720;23.252;2022-12-26T00:43:37;38.83;;;21.33;;
20619;SDS011;10469;42.720;23.252;2022-12-26T00:46:02;37.33;;;20.60;;
20619;SDS011;10469;42.720;23.252;2022-12-26T00:48:28;40.13;;;22.17;;
20619;SDS011;10469;42.720;23.252;2022-12-26T00:50:54;46.67;;;23.98;;
20619;SDS011;10469;42.720;23.252;2022-12-26T00:53:19;41.28;;;22.20;;
20619;SDS011;10469;42.720;23.252;2022-12-26T00:55:46;41.42;;;21.95;;
20619;SDS011;10469;42.720;23.252;2022-12-26T00:58:11;38.35;;;21.98;;
20619;SDS011;10469;42.720;23.252;2022-12-26T01:00:37;43.63;;;24.13;;
20619;SDS011;10469;42.720;23.252;2022-12-26T01:03:03;45.00;;;23.90;;
20619;SDS011;10469;42.720;23.252;2022-12-26T01:05:31;47.75;;;25.08;;
20619;SDS011;10469;42.720;23.252;2022-12-26T01:07:57;48.80;;;24.58;;
20619;SDS011;10469;42.720;23.252;2022-12-26T01:10:22;45.63;;;23.52;;
20619;SDS011;10469;42.720;23.252;2022-12-26T01:12:48;45.10;;;24.40;;
20619;SDS011;10469;42.720;23.252;2022-12-26T01:15:13;42.72;;;23.85;;
20619;SDS011;10469;42.720;23.252;2022-12-26T01:17:39;37.95;;;21.00;;
20619;SDS011;10469;42.720;23.252;2022-12-26T01:20:04;33.25;;;20.23;;
20619;SDS011;10469;42.720;23.252;2022-12-26T01:22:30;34.78;;;20.10;;
20619;SDS011;10469;42.720;23.252;2022-12-26T01:24:56;35.65;;;19.70;;
20619;SDS011;10469;42.720;23.252;2022-12-26T01:27:22;35.40;;;18.10;;
20619;SDS011;10469;42.720;23.252;2022-12-26T01:29:48;30.02;;;18.45;;
20619;SDS011;10469;42.720;23.252;2022-12-26T01:32:14;34.33;;;19.08;;
20619;SDS011;10469;42.720;23.252;2022-12-26T01:34:40;36.20;;;20.10;;
20619;SDS011;10469;42.720;23.252;2022-12-26T01:37:05;33.45;;;18.90;;
20619;SDS011;10469;42.720;23.252;2022-12-26T01:39:31;29.95;;;17.23;;
20619;SDS011;10469;42.720;23.252;2022-12-26T01:41:56;34.25;;;20.35;;
20619;SDS011;10469;42.720;23.252;2022-12-26T01:47:22;27.95;;;17.08;;
20619;SDS011;10469;42.720;23.252;2022-12-26T01:49:54;33.00;;;18.30;;
20619;SDS011;10469;42.720;23.252;2022-12-26T01:52:24;30.50;;;17.38;;
20619;SDS011;10469;42.720;23.252;2022-12-26T01:54:59;33.20;;;18.17;;
20619;SDS011;10469;42.720;23.252;2022-12-26T01:57:29;32.55;;;17.33;;
20619;SDS011;10469;42.720;23.252;2022-12-26T01:59:59;31.33;;;17.42;;
20619;SDS011;10469;42.720;23.252;2022-12-26T02:02:26;31.27;;;18.65;;
20619;SDS011;10469;42.720;23.252;2022-12-26T02:04:53;32.75;;;18.10;;
20619;SDS011;10469;42.720;23.252;2022-12-26T02:07:39;27.20;;;17.50;;
20619;SDS011;10469;42.720;23.252;2022-12-26T02:10:13;28.55;;;17.92;;
20619;SDS011;10469;42.720;23.252;2022-12-26T02:12:44;26.95;;;15.32;;
20619;SDS011;10469;42.720;23.252;2022-12-26T02:15:13;28.08;;;15.65;;
20619;SDS011;10469;42.720;23.252;2022-12-26T02:17:41;27.88;;;16.05;;
20619;SDS011;10469;42.720;23.252;2022-12-26T02:20:26;27.98;;;16.63;;
20619;SDS011;10469;42.720;23.252;2022-12-26T02:25:33;23.08;;;14.30;;
20619;SDS011;10469;42.720;23.252;2022-12-26T02:34:29;25.95;;;14.52;;
20619;SDS011;10469;42.720;23.252;2022-12-26T02:37:47;22.77;;;13.23;;
20619;SDS011;10469;42.720;23.252;2022-12-26T02:52:28;34.38;;;20.30;;
20619;SDS011;10469;42.720;23.252;2022-12-26T02:55:08;43.10;;;22.88;;
20619;SDS011;10469;42.720;23.252;2022-12-26T02:58:03;41.22;;;23.20;;
20619;SDS011;10469;42.720;23.252;2022-12-26T03:00:49;42.10;;;22.10;;
20619;SDS011;10469;42.720;23.252;2022-12-26T03:03:41;32.17;;;20.33;;
20619;SDS011;10469;42.720;23.252;2022-12-26T03:06:28;38.75;;;20.60;;
20619;SDS011;10469;42.720;23.252;2022-12-26T03:09:19;31.02;;;19.85;;
20619;SDS011;10469;42.720;23.252;2022-12-26T03:12:20;23.35;;;12.45;;
20619;SDS011;10469;42.720;23.252;2022-12-26T03:15:26;21.15;;;12.25;;
20619;SDS011;10469;42.720;23.252;2022-12-26T03:18:15;21.00;;;11.90;;
20619;SDS011;10469;42.720;23.252;2022-12-26T03:20:43;19.35;;;12.73;;
20619;SDS011;10469;42.720;23.252;2022-12-26T03:23:11;20.95;;;12.40;;
20619;SDS011;10469;42.720;23.252;2022-12-26T03:28:40;31.48;;;16.83;;
20619;SDS011;10469;42.720;23.252;2022-12-26T03:31:08;28.52;;;16.33;;
20619;SDS011;10469;42.720;23.252;2022-12-26T03:33:40;27.08;;;16.55;;
20619;SDS011;10469;42.720;23.252;2022-12-26T03:51:41;30.75;;;19.00;;
20619;SDS011;10469;42.720;23.252;2022-12-26T03:54:30;39.75;;;20.90;;
20619;SDS011;10469;42.720;23.252;2022-12-26T03:57:20;34.03;;;19.13;;
20619;SDS011;10469;42.720;23.252;2022-12-26T04:00:13;33.92;;;19.20;;
20619;SDS011;10469;42.720;23.252;2022-12-26T04:02:59;34.38;;;19.63;;
20619;SDS011;10469;42.720;23.252;2022-12-26T04:05:48;32.92;;;19.17;;
20619;SDS011;10469;42.720;23.252;2022-12-26T04:11:34;33.97;;;19.50;;
20619;SDS011;10469;42.720;23.252;2022-12-26T04:14:30;34.67;;;19.67;;
20619;SDS011;10469;42.720;23.252;2022-12-26T04:20:43;33.83;;;19.97;;
20619;SDS011;10469;42.720;23.252;2022-12-26T04:23:17;34.50;;;19.77;;
20619;SDS011;10469;42.720;23.252;2022-12-26T04:26:16;35.15;;;21.25;;
20619;SDS011;10469;42.720;23.252;2022-12-26T04:29:06;34.10;;;20.10;;
20619;SDS011;10469;42.720;23.252;2022-12-26T04:31:57;33.80;;;17.30;;
20619;SDS011;10469;42.720;23.252;2022-12-26T04:34:53;32.72;;;17.52;;
20619;SDS011;10469;42.720;23.252;2022-12-26T04:37:46;32.00;;;18.33;;
20619;SDS011;10469;42.720;23.252;2022-12-26T04:40:35;29.58;;;17.80;;
20619;SDS011;10469;42.720;23.252;2022-12-26T04:43:23;32.10;;;17.98;;
20619;SDS011;10469;42.720;23.252;2022-12-26T04:46:09;29.98;;;18.10;;
20619;SDS011;10469;42.720;23.252;2022-12-26T04:48:40;33.60;;;19.58;;
20619;SDS011;10469;42.720;23.252;2022-12-26T04:51:26;29.15;;;17.73;;
20619;SDS011;10469;42.720;23.252;2022-12-26T04:53:51;32.28;;;18.23;;
20619;SDS011;10469;42.720;23.252;2022-12-26T04:56:17;30.90;;;17.80;;
20619;SDS011;10469;42.720;23.252;2022-12-26T04:58:42;34.70;;;16.25;;
20619;SDS011;10469;42.720;23.252;2022-12-26T05:01:08;33.92;;;18.33;;
20619;SDS011;10469;42.720;23.252;2022-12-26T05:03:52;35.00;;;19.67;;
20619;SDS011;10469;42.720;23.252;2022-12-26T05:06:36;37.55;;;19.60;;
20619;SDS011;10469;42.720;23.252;2022-12-26T05:09:20;37.70;;;19.85;;
20619;SDS011;10469;42.720;23.252;2022-12-26T05:12:07;37.03;;;22.10;;
20619;SDS011;10469;42.720;23.252;2022-12-26T05:14:34;48.75;;;23.33;;
20619;SDS011;10469;42.720;23.252;2022-12-26T05:17:00;41.60;;;21.90;;
20619;SDS011;10469;42.720;23.252;2022-12-26T05:19:45;37.10;;;20.75;;
20619;SDS011;10469;42.720;23.252;2022-12-26T05:22:31;31.90;;;19.67;;
20619;SDS011;10469;42.720;23.252;2022-12-26T05:25:23;35.38;;;19.15;;
20619;SDS011;10469;42.720;23.252;2022-12-26T05:28:10;35.22;;;19.23;;
20619;SDS011;10469;42.720;23.252;2022-12-26T05:30:55;37.10;;;21.30;;
20619;SDS011;10469;42.720;23.252;2022-12-26T05:33:21;38.78;;;22.10;;
20619;SDS011;10469;42.720;23.252;2022-12-26T05:36:05;33.25;;;18.55;;
20619;SDS011;10469;42.720;23.252;2022-12-26T05:38:30;32.70;;;18.10;;
20619;SDS011;10469;42.720;23.252;2022-12-26T05:40:56;33.67;;;19.35;;
20619;SDS011;10469;42.720;23.252;2022-12-26T05:43:21;32.38;;;18.15;;
20619;SDS011;10469;42.720;23.252;2022-12-26T05:45:47;37.47;;;19.95;;
20619;SDS011;10469;42.720;23.252;2022-12-26T05:48:12;28.77;;;16.70;;
20619;SDS011;10469;42.720;23.252;2022-12-26T05:50:38;32.85;;;19.90;;
20619;SDS011;10469;42.720;23.252;2022-12-26T05:53:03;32.80;;;17.30;;
20619;SDS011;10469;42.720;23.252;2022-12-26T05:55:28;31.08;;;17.75;;
20619;SDS011;10469;42.720;23.252;2022-12-26T05:57:55;28.08;;;17.75;;
20619;SDS011;10469;42.720;23.252;2022-12-26T06:00:23;29.23;;;17.73;;
20619;SDS011;10469;42.720;23.252;2022-12-26T06:02:48;36.05;;;18.30;;
20619;SDS011;10469;42.720;23.252;2022-12-26T06:05:14;28.73;;;17.55;;
20619;SDS011;10469;42.720;23.252;2022-12-26T06:07:39;28.45;;;17.02;;
20619;SDS011;10469;42.720;23.252;2022-12-26T06:10:05;37.33;;;17.85;;
20619;SDS011;10469;42.720;23.252;2022-12-26T06:12:31;31.13;;;17.38;;
20619;SDS011;10469;42.720;23.252;2022-12-26T06:14:57;40.38;;;20.83;;
20619;SDS011;10469;42.720;23.252;2022-12-26T06:17:22;35.50;;;20.83;;
20619;SDS011;10469;42.720;23.252;2022-12-26T06:19:48;30.60;;;18.08;;
20619;SDS011;10469;42.720;23.252;2022-12-26T06:22:13;33.22;;;17.98;;
20619;SDS011;10469;42.720;23.252;2022-12-26T06:24:38;18.60;;;12.38;;
20619;SDS011;10469;42.720;23.252;2022-12-26T06:27:04;25.52;;;14.60;;
20619;SDS011;10469;42.720;23.252;2022-12-26T06:29:29;16.25;;;10.82;;
20619;SDS011;10469;42.720;23.252;2022-12-26T06:31:55;19.65;;;11.90;;
20619;SDS011;10469;42.720;23.252;2022-12-26T06:34:20;19.10;;;11.90;;
20619;SDS011;10469;42.720;23.252;2022-12-26T06:36:45;23.10;;;12.95;;
20619;SDS011;10469;42.720;23.252;2022-12-26T06:39:11;20.60;;;13.38;;
20619;SDS011;10469;42.720;23.252;2022-12-26T06:41:36;30.67;;;14.98;;
20619;SDS011;10469;42.720;23.252;2022-12-26T06:44:02;25.70;;;14.10;;
20619;SDS011;10469;42.720;23.252;2022-12-26T06:46:27;24.45;;;14.23;;
20619;SDS011;10469;42.720;23.252;2022-12-26T06:48:53;25.77;;;14.40;;
20619;SDS011;10469;42.720;23.252;2022-12-26T06:51:20;28.30;;;15.48;;
20619;SDS011;10469;42.720;23.252;2022-12-26T06:53:50;27.55;;;14.75;;
20619;SDS011;10469;42.720;23.252;2022-12-26T06:56:18;26.60;;;16.38;;
20619;SDS011;10469;42.720;23.252;2022-12-26T06:58:51;23.33;;;15.05;;
20619;SDS011;10469;42.720;23.252;2022-12-26T07:01:20;24.58;;;15.70;;
20619;SDS011;10469;42.720;23.252;2022-12-26T07:03:46;28.95;;;16.55;;
20619;SDS011;10469;42.720;23.252;2022-12-26T07:06:15;32.08;;;16.98;;
20619;SDS011;10469;42.720;23.252;2022-12-26T07:08:57;27.63;;;16.67;;
20619;SDS011;10469;42.720;23.252;2022-12-26T07:11:26;28.60;;;17.17;;
20619;SDS011;10469;42.720;23.252;2022-12-26T07:13:54;23.92;;;15.75;;
20619;SDS011;10469;42.720;23.252;2022-12-26T07:16:19;24.40;;;15.90;;
20619;SDS011;10469;42.720;23.252;2022-12-26T07:18:45;26.50;;;16.80;;
20619;SDS011;10469;42.720;23.252;2022-12-26T07:21:12;26.40;;;15.18;;
20619;SDS011;10469;42.720;23.252;2022-12-26T07:23:39;23.45;;;15.23;;
20619;SDS011;10469;42.720;23.252;2022-12-26T07:26:05;29.83;;;16.65;;
20619;SDS011;10469;42.720;23.252;2022-12-26T07:28:31;26.67;;;13.38;;
20619;SDS011;10469;42.720;23.252;2022-12-26T07:30:56;22.77;;;12.80;;
20619;SDS011;10469;42.720;23.252;2022-12-26T07:33:23;21.85;;;13.50;;
20619;SDS011;10469;42.720;23.252;2022-12-26T07:35:49;25.25;;;13.77;;
20619;SDS011;10469;42.720;23.252;2022-12-26T07:38:15;27.65;;;15.30;;
20619;SDS011;10469;42.720;23.252;2022-12-26T07:40:40;28.77;;;15.38;;
20619;SDS011;10469;42.720;23.252;2022-12-26T07:43:05;27.92;;;15.75;;
20619;SDS011;10469;42.720;23.252;2022-12-26T07:45:31;27.90;;;15.85;;
20619;SDS011;10469;42.720;23.252;2022-12-26T07:47:57;27.23;;;16.73;;
20619;SDS011;10469;42.720;23.252;2022-12-26T07:50:24;28.50;;;17.20;;
20619;SDS011;10469;42.720;23.252;2022-12-26T07:52:50;35.00;;;16.88;;
20619;SDS011;10469;42.720;23.252;2022-12-26T07:55:16;23.55;;;14.38;;
20619;SDS011;10469;42.720;23.252;2022-12-26T07:57:42;29.80;;;17.15;;
20619;SDS011;10469;42.720;23.252;2022-12-26T08:00:08;30.25;;;16.33;;
20619;SDS011;10469;42.720;23.252;2022-12-26T08:02:34;25.50;;;14.68;;
20619;SDS011;10469;42.720;23.252;2022-12-26T08:04:59;24.55;;;16.08;;
20619;SDS011;10469;42.720;23.252;2022-12-26T08:07:25;23.70;;;15.27;;
20619;SDS011;10469;42.720;23.252;2022-12-26T08:09:50;22.45;;;14.13;;
20619;SDS011;10469;42.720;23.252;2022-12-26T08:12:16;33.90;;;18.20;;
20619;SDS011;10469;42.720;23.252;2022-12-26T08:14:45;27.38;;;17.85;;
20619;SDS011;10469;42.720;23.252;2022-12-26T08:17:10;33.55;;;19.05;;
20619;SDS011;10469;42.720;23.252;2022-12-26T08:19:36;29.88;;;18.33;;
20619;SDS011;10469;42.720;23.252;2022-12-26T08:22:01;26.90;;;18.08;;
20619;SDS011;10469;42.720;23.252;2022-12-26T08:24:27;25.40;;;16.70;;
20619;SDS011;10469;42.720;23.252;2022-12-26T08:26:52;19.20;;;13.85;;
20619;SDS011;10469;42.720;23.252;2022-12-26T08:29:17;17.15;;;11.95;;
20619;SDS011;10469;42.720;23.252;2022-12-26T08:31:43;20.98;;;14.13;;
20619;SDS011;10469;42.720;23.252;2022-12-26T08:34:08;19.77;;;13.13;;
20619;SDS011;10469;42.720;23.252;2022-12-26T08:36:34;21.02;;;12.77;;
20619;SDS011;10469;42.720;23.252;2022-12-26T08:39:00;21.73;;;12.80;;
20619;SDS011;10469;42.720;23.252;2022-12-26T08:41:25;16.50;;;12.00;;
20619;SDS011;10469;42.720;23.252;2022-12-26T08:43:51;18.05;;;12.85;;
20619;SDS011;10469;42.720;23.252;2022-12-26T08:46:18;22.48;;;14.02;;
20619;SDS011;10469;42.720;23.252;2022-12-26T08:48:44;21.88;;;13.82;;
20619;SDS011;10469;42.720;23.252;2022-12-26T08:51:20;24.17;;;14.63;;
20619;SDS011;10469;42.720;23.252;2022-12-26T08:53:48;27.35;;;15.93;;
20619;SDS011;10469;42.720;23.252;2022-12-26T08:56:16;28.17;;;16.55;;
20619;SDS011;10469;42.720;23.252;2022-12-26T08:58:43;29.83;;;18.00;;
20619;SDS011;10469;42.720;23.252;2022-12-26T09:03:39;40.80;;;21.08;;
20619;SDS011;10469;42.720;23.252;2022-12-26T09:06:07;31.13;;;19.63;;
20619;SDS011;10469;42.720;23.252;2022-12-26T09:08:33;27.52;;;17.30;;
20619;SDS011;10469;42.720;23.252;2022-12-26T09:11:01;27.20;;;16.95;;
20619;SDS011;10469;42.720;23.252;2022-12-26T09:13:27;31.83;;;17.75;;
20619;SDS011;10469;42.720;23.252;2022-12-26T09:15:53;26.85;;;16.63;;
20619;SDS011;10469;42.720;23.252;2022-12-26T09:18:18;25.20;;;16.67;;
20619;SDS011;10469;42.720;23.252;2022-12-26T09:20:44;20.40;;;15.30;;
20619;SDS011;10469;42.720;23.252;2022-12-26T09:23:09;25.58;;;14.65;;
20619;SDS011;10469;42.720;23.252;2022-12-26T09:25:35;26.77;;;18.08;;
20619;SDS011;10469;42.720;23.252;2022-12-26T09:28:00;32.25;;;19.85;;
20619;SDS011;10469;42.720;23.252;2022-12-26T09:30:26;31.77;;;19.08;;
20619;SDS011;10469;42.720;23.252;2022-12-26T09:32:51;31.17;;;18.35;;
20619;SDS011;10469;42.720;23.252;2022-12-26T09:35:17;26.63;;;16.90;;
20619;SDS011;10469;42.720;23.252;2022-12-26T09:37:43;26.20;;;16.30;;
20619;SDS011;10469;42.720;23.252;2022-12-26T09:40:16;23.38;;;15.38;;
20619;SDS011;10469;42.720;23.252;2022-12-26T09:42:52;28.67;;;17.33;;
20619;SDS011;10469;42.720;23.252;2022-12-26T09:45:57;25.67;;;16.63;;
20619;SDS011;10469;42.720;23.252;2022-12-26T09:48:56;28.98;;;16.35;;
20619;SDS011;10469;42.720;23.252;2022-12-26T09:51:26;25.63;;;15.88;;
20619;SDS011;10469;42.720;23.252;2022-12-26T09:53:55;22.92;;;15.98;;
20619;SDS011;10469;42.720;23.252;2022-12-26T09:56:23;26.58;;;16.70;;
20619;SDS011;10469;42.720;23.252;2022-12-26T09:58:55;25.75;;;15.98;;
20619;SDS011;10469;42.720;23.252;2022-12-26T10:01:28;24.95;;;14.60;;
20619;SDS011;10469;42.720;23.252;2022-12-26T10:03:58;27.25;;;15.65;;
20619;SDS011;10469;42.720;23.252;2022-12-26T10:06:39;24.85;;;14.15;;
20619;SDS011;10469;42.720;23.252;2022-12-26T10:26:15;27.92;;;15.10;;
20619;SDS011;10469;42.720;23.252;2022-12-26T10:42:44;17.67;;;9.93;;
20619;SDS011;10469;42.720;23.252;2022-12-26T10:45:15;16.38;;;10.40;;
20619;SDS011;10469;42.720;23.252;2022-12-26T10:47:43;18.98;;;11.13;;
20619;SDS011;10469;42.720;23.252;2022-12-26T10:50:15;16.25;;;10.85;;
20619;SDS011;10469;42.720;23.252;2022-12-26T10:52:45;22.77;;;11.43;;
20619;SDS011;10469;42.720;23.252;2022-12-26T10:55:15;18.05;;;11.90;;
20619;SDS011;10469;42.720;23.252;2022-12-26T10:57:43;20.88;;;10.98;;
20619;SDS011;10469;42.720;23.252;2022-12-26T11:00:13;19.35;;;10.80;;
20619;SDS011;10469;42.720;23.252;2022-12-26T11:02:45;16.60;;;9.70;;
20619;SDS011;10469;42.720;23.252;2022-12-26T11:05:28;21.02;;;9.63;;
20619;SDS011;10469;42.720;23.252;2022-12-26T11:07:56;18.38;;;9.85;;
20619;SDS011;10469;42.720;23.252;2022-12-26T11:16:23;19.05;;;10.40;;
20619;SDS011;10469;42.720;23.252;2022-12-26T11:19:00;22.48;;;10.43;;
20619;SDS011;10469;42.720;23.252;2022-12-26T11:21:26;16.55;;;10.80;;
20619;SDS011;10469;42.720;23.252;2022-12-26T11:24:38;18.13;;;10.93;;
20619;SDS011;10469;42.720;23.252;2022-12-26T11:26:46;21.48;;;10.38;;
20619;SDS011;10469;42.720;23.252;2022-12-26T11:29:13;20.90;;;11.20;;
20619;SDS011;10469;42.720;23.252;2022-12-26T11:31:52;17.27;;;10.52;;
20619;SDS011;10469;42.720;23.252;2022-12-26T11:34:44;17.05;;;10.65;;
20619;SDS011;10469;42.720;23.252;2022-12-26T11:40:14;25.70;;;13.70;;
20619;SDS011;10469;42.720;23.252;2022-12-26T11:42:42;25.65;;;13.70;;
20619;SDS011;10469;42.720;23.252;2022-12-26T11:45:14;26.00;;;15.07;;
20619;SDS011;10469;42.720;23.252;2022-12-26T11:47:46;24.52;;;14.38;;
20619;SDS011;10469;42.720;23.252;2022-12-26T11:50:12;27.45;;;14.02;;
20619;SDS011;10469;42.720;23.252;2022-12-26T12:00:42;24.75;;;13.10;;
20619;SDS011;10469;42.720;23.252;2022-12-26T12:03:47;18.70;;;13.80;;
20619;SDS011;10469;42.720;23.252;2022-12-26T12:30:49;23.23;;;15.02;;
20619;SDS011;10469;42.720;23.252;2022-12-26T12:36:31;27.48;;;16.50;;
20619;SDS011;10469;42.720;23.252;2022-12-26T12:47:14;24.48;;;14.57;;
20619;SDS011;10469;42.720;23.252;2022-12-26T12:49:52;25.33;;;14.52;;
20619;SDS011;10469;42.720;23.252;2022-12-26T12:57:46;22.50;;;13.98;;
20619;SDS011;10469;42.720;23.252;2022-12-26T13:00:19;27.70;;;13.93;;
20619;SDS011;10469;42.720;23.252;2022-12-26T13:06:04;22.75;;;13.95;;
20619;SDS011;10469;42.720;23.252;2022-12-26T13:08:40;21.90;;;14.00;;
20619;SDS011;10469;42.720;23.252;2022-12-26T13:11:12;26.80;;;13.45;;
20619;SDS011;10469;42.720;23.252;2022-12-26T13:16:16;26.50;;;13.60;;
20619;SDS011;10469;42.720;23.252;2022-12-26T13:18:49;19.98;;;13.07;;
20619;SDS011;10469;42.720;23.252;2022-12-26T13:21:17;23.17;;;12.93;;
20619;SDS011;10469;42.720;23.252;2022-12-26T13:23:49;22.92;;;13.25;;
20619;SDS011;10469;42.720;23.252;2022-12-26T13:26:41;24.23;;;14.15;;
20619;SDS011;10469;42.720;23.252;2022-12-26T13:31:57;21.20;;;13.48;;
20619;SDS011;10469;42.720;23.252;2022-12-26T13:34:23;22.27;;;14.95;;
20619;SDS011;10469;42.720;23.252;2022-12-26T13:36:49;26.70;;;14.88;;
20619;SDS011;10469;42.720;23.252;2022-12-26T13:39:27;32.38;;;16.65;;
20619;SDS011;10469;42.720;23.252;2022-12-26T13:44:52;31.15;;;16.58;;
20619;SDS011;10469;42.720;23.252;2022-12-26T13:47:34;32.67;;;19.20;;
20619;SDS011;10469;42.720;23.252;2022-12-26T13:51:02;41.38;;;16.13;;
20619;SDS011;10469;42.720;23.252;2022-12-26T13:55:49;27.58;;;15.98;;
20619;SDS011;10469;42.720;23.252;2022-12-26T14:01:09;27.55;;;16.50;;
20619;SDS011;10469;42.720;23.252;2022-12-26T14:06:29;25.50;;;15.63;;
20619;SDS011;10469;42.720;23.252;2022-12-26T14:33:21;27.58;;;16.10;;
20619;SDS011;10469;42.720;23.252;2022-12-26T14:43:35;23.00;;;12.30;;
20619;SDS011;10469;42.720;23.252;2022-12-26T14:48:52;20.77;;;10.25;;
20619;SDS011;10469;42.720;23.252;2022-12-26T14:53:45;21.92;;;9.50;;
20619;SDS011;10469;42.720;23.252;2022-12-26T14:56:40;19.08;;;9.43;;
20619;SDS011;10469;42.720;23.252;2022-12-26T15:02:07;16.38;;;8.63;;
20619;SDS011;10469;42.720;23.252;2022-12-26T15:10:09;27.33;;;14.57;;
20619;SDS011;10469;42.720;23.252;2022-12-26T15:15:31;22.33;;;11.82;;
20619;SDS011;10469;42.720;23.252;2022-12-26T15:18:04;28.33;;;11.35;;
20619;SDS011;10469;42.720;23.252;2022-12-26T16:01:14;38.33;;;16.50;;
20619;SDS011;10469;42.720;23.252;2022-12-26T16:04:01;30.63;;;15.38;;
20619;SDS011;10469;42.720;23.252;2022-12-26T16:09:01;27.05;;;16.00;;
20619;SDS011;10469;42.720;23.252;2022-12-26T16:11:48;25.27;;;14.23;;
20619;SDS011;10469;42.720;23.252;2022-12-26T16:17:19;37.70;;;16.58;;
20619;SDS011;10469;42.720;23.252;2022-12-26T16:19:46;41.17;;;18.85;;
20619;SDS011;10469;42.720;23.252;2022-12-26T16:22:36;40.65;;;20.63;;
20619;SDS011;10469;42.720;23.252;2022-12-26T16:25:20;40.20;;;18.95;;
20619;SDS011;10469;42.720;23.252;2022-12-26T16:27:48;41.35;;;20.05;;
20619;SDS011;10469;42.720;23.252;2022-12-26T16:30:19;46.92;;;24.70;;
20619;SDS011;10469;42.720;23.252;2022-12-26T16:32:46;51.25;;;26.65;;
20619;SDS011;10469;42.720;23.252;2022-12-26T16:35:25;44.95;;;23.55;;
20619;SDS011;10469;42.720;23.252;2022-12-26T16:37:54;58.88;;;28.67;;
20619;SDS011;10469;42.720;23.252;2022-12-26T16:40:27;56.65;;;27.88;;
20619;SDS011;10469;42.720;23.252;2022-12-26T16:43:07;50.92;;;25.38;;
20619;SDS011;10469;42.720;23.252;2022-12-26T16:45:48;55.17;;;26.23;;
20619;SDS011;10469;42.720;23.252;2022-12-26T16:48:16;53.30;;;25.35;;
20619;SDS011;10469;42.720;23.252;2022-12-26T16:50:48;53.47;;;25.70;;
20619;SDS011;10469;42.720;23.252;2022-12-26T17:01:29;43.13;;;23.15;;
20619;SDS011;10469;42.720;23.252;2022-12-26T17:03:57;52.38;;;22.95;;
20619;SDS011;10469;42.720;23.252;2022-12-26T17:06:27;53.10;;;25.73;;
20619;SDS011;10469;42.720;23.252;2022-12-26T17:08:56;50.15;;;26.55;;
20619;SDS011;10469;42.720;23.252;2022-12-26T17:11:29;49.75;;;25.52;;
20619;SDS011;10469;42.720;23.252;2022-12-26T17:13:56;52.35;;;25.88;;
20619;SDS011;10469;42.720;23.252;2022-12-26T17:16:24;51.47;;;23.85;;
20619;SDS011;10469;42.720;23.252;2022-12-26T17:18:53;52.60;;;25.58;;
20619;SDS011;10469;42.720;23.252;2022-12-26T17:27:35;46.17;;;25.65;;
20619;SDS011;10469;42.720;23.252;2022-12-26T17:29:46;44.33;;;25.08;;
20619;SDS011;10469;42.720;23.252;2022-12-26T17:32:14;47.13;;;24.83;;
20619;SDS011;10469;42.720;23.252;2022-12-26T17:34:44;47.45;;;25.60;;
20619;SDS011;10469;42.720;23.252;2022-12-26T17:37:15;46.35;;;24.73;;
20619;SDS011;10469;42.720;23.252;2022-12-26T17:45:31;44.15;;;24.58;;
20619;SDS011;10469;42.720;23.252;2022-12-26T17:47:57;44.17;;;21.75;;
20619;SDS011;10469;42.720;23.252;2022-12-26T17:50:23;35.17;;;20.95;;
20619;SDS011;10469;42.720;23.252;2022-12-26T17:52:53;103.63;;;53.83;;
20619;SDS011;10469;42.720;23.252;2022-12-26T17:55:22;37.05;;;19.63;;
20619;SDS011;10469;42.720;23.252;2022-12-26T17:57:51;35.50;;;19.80;;
20619;SDS011;10469;42.720;23.252;2022-12-26T18:00:18;38.35;;;20.23;;
20619;SDS011;10469;42.720;23.252;2022-12-26T18:02:46;31.88;;;17.88;;
20619;SDS011;10469;42.720;23.252;2022-12-26T18:05:11;36.60;;;18.30;;
20619;SDS011;10469;42.720;23.252;2022-12-26T18:07:37;41.47;;;21.05;;
20619;SDS011;10469;42.720;23.252;2022-12-26T18:10:03;34.60;;;18.60;;
20619;SDS011;10469;42.720;23.252;2022-12-26T18:12:30;31.75;;;17.55;;
20619;SDS011;10469;42.720;23.252;2022-12-26T18:14:55;28.70;;;16.35;;
20619;SDS011;10469;42.720;23.252;2022-12-26T18:17:21;27.35;;;16.63;;
20619;SDS011;10469;42.720;23.252;2022-12-26T18:19:46;34.90;;;18.25;;
20619;SDS011;10469;42.720;23.252;2022-12-26T18:22:17;36.65;;;17.33;;
20619;SDS011;10469;42.720;23.252;2022-12-26T18:24:43;35.13;;;17.60;;
20619;SDS011;10469;42.720;23.252;2022-12-26T18:27:42;31.27;;;17.92;;
20619;SDS011;10469;42.720;23.252;2022-12-26T18:30:00;29.88;;;17.15;;
20619;SDS011;10469;42.720;23.252;2022-12-26T18:32:30;35.47;;;16.55;;
20619;SDS011;10469;42.720;23.252;2022-12-26T18:34:57;32.78;;;17.17;;
20619;SDS011;10469;42.720;23.252;2022-12-26T18:37:24;35.78;;;18.60;;
20619;SDS011;10469;42.720;23.252;2022-12-26T18:39:51;31.27;;;18.15;;
20619;SDS011;10469;42.720;23.252;2022-12-26T18:42:17;36.08;;;18.75;;
20619;SDS011;10469;42.720;23.252;2022-12-26T18:44:43;36.40;;;18.02;;
20619;SDS011;10469;42.720;23.252;2022-12-26T18:47:13;32.35;;;18.33;;
20619;SDS011;10469;42.720;23.252;2022-12-26T18:49:41;39.58;;;19.08;;
20619;SDS011;10469;42.720;23.252;2022-12-26T18:52:07;48.28;;;23.85;;
20619;SDS011;10469;42.720;23.252;2022-12-26T18:54:33;45.60;;;21.83;;
20619;SDS011;10469;42.720;23.252;2022-12-26T18:57:00;37.75;;;19.48;;
20619;SDS011;10469;42.720;23.252;2022-12-26T18:59:26;35.78;;;18.42;;
20619;SDS011;10469;42.720;23.252;2022-12-26T19:01:52;46.75;;;19.65;;
20619;SDS011;10469;42.720;23.252;2022-12-26T19:04:17;47.72;;;20.73;;
20619;SDS011;10469;42.720;23.252;2022-12-26T19:06:43;39.10;;;18.98;;
20619;SDS011;10469;42.720;23.252;2022-12-26T19:09:10;38.15;;;20.45;;